sensor_id;sensor_type;location;lat;lon;timestamp;pressure;altitude;pressure_sealevel;temperature;humidity
66385;BME280;53426;55.872;37.462;2023-04-24T00:00:21;99230.28;;;11.55;41.72
66385;BME280;53426;55.872;37.462;2023-04-24T00:02:47;99236.69;;;11.53;41.20
66385;BME280;53426;55.872;37.462;2023-04-24T00:05:14;99233.34;;;11.51;41.76
66385;BME280;53426;55.872;37.462;2023-04-24T00:07:41;99235.84;;;11.52;41.01
66385;BME280;53426;55.872;37.462;2023-04-24T00:10:08;99219.25;;;11.41;41.34
66385;BME280;53426;55.872;37.462;2023-04-24T00:12:34;99220.94;;;11.42;40.97
66385;BME280;53426;55.872;37.462;2023-04-24T00:15:01;99230.84;;;11.49;41.10
66385;BME280;53426;55.872;37.462;2023-04-24T00:17:30;99203.50;;;11.29;41.23
66385;BME280;53426;55.872;37.462;2023-04-24T00:19:56;99234.47;;;11.48;41.55
66385;BME280;53426;55.872;37.462;2023-04-24T00:22:28;99231.28;;;11.45;41.39
66385;BME280;53426;55.872;37.462;2023-04-24T00:24:54;99228.63;;;11.45;41.34
66385;BME280;53426;55.872;37.462;2023-04-24T00:27:20;99223.72;;;11.40;41.70
66385;BME280;53426;55.872;37.462;2023-04-24T00:29:48;99237.94;;;11.49;41.67
66385;BME280;53426;55.872;37.462;2023-04-24T00:32:14;99238.09;;;11.47;41.50
66385;BME280;53426;55.872;37.462;2023-04-24T00:34:41;99229.72;;;11.42;40.89
66385;BME280;53426;55.872;37.462;2023-04-24T00:37:07;99233.91;;;11.45;41.41
66385;BME280;53426;55.872;37.462;2023-04-24T00:39:33;99234.47;;;11.39;41.13
66385;BME280;53426;55.872;37.462;2023-04-24T00:41:59;99236.44;;;11.37;41.99
66385;BME280;53426;55.872;37.462;2023-04-24T00:44:25;99235.88;;;11.33;41.90
66385;BME280;53426;55.872;37.462;2023-04-24T00:46:51;99227.25;;;11.21;41.97
66385;BME280;53426;55.872;37.462;2023-04-24T00:49:21;99235.91;;;11.23;42.05
66385;BME280;53426;55.872;37.462;2023-04-24T00:51:48;99221.66;;;11.05;41.98
66385;BME280;53426;55.872;37.462;2023-04-24T00:54:17;99223.34;;;11.06;42.20
66385;BME280;53426;55.872;37.462;2023-04-24T00:56:44;99230.75;;;11.12;42.71
66385;BME280;53426;55.872;37.462;2023-04-24T00:59:12;99237.00;;;11.11;42.51
66385;BME280;53426;55.872;37.462;2023-04-24T01:01:39;99230.88;;;11.11;42.24
66385;BME280;53426;55.872;37.462;2023-04-24T01:04:09;99227.38;;;11.10;42.67
66385;BME280;53426;55.872;37.462;2023-04-24T01:06:38;99228.34;;;11.09;42.40
66385;BME280;53426;55.872;37.462;2023-04-24T01:09:06;99232.25;;;11.05;42.74
66385;BME280;53426;55.872;37.462;2023-04-24T01:11:36;99211.34;;;10.93;42.31
66385;BME280;53426;55.872;37.462;2023-04-24T01:14:04;99227.94;;;11.04;41.90
66385;BME280;53426;55.872;37.462;2023-04-24T01:16:30;99235.16;;;11.02;42.77
66385;BME280;53426;55.872;37.462;2023-04-24T01:18:56;99220.66;;;10.97;43.04
66385;BME280;53426;55.872;37.462;2023-04-24T01:21:23;99229.44;;;10.97;43.14
66385;BME280;53426;55.872;37.462;2023-04-24T01:23:51;99222.50;;;10.96;43.41
66385;BME280;53426;55.872;37.462;2023-04-24T01:26:18;99163.09;;;10.60;42.74
66385;BME280;53426;55.872;37.462;2023-04-24T01:28:46;99223.06;;;11.00;42.54
66385;BME280;53426;55.872;37.462;2023-04-24T01:31:12;99221.66;;;10.96;42.93
66385;BME280;53426;55.872;37.462;2023-04-24T01:33:38;99198.78;;;10.75;42.97
66385;BME280;53426;55.872;37.462;2023-04-24T01:36:04;99216.09;;;10.89;42.63
66385;BME280;53426;55.872;37.462;2023-04-24T01:38:30;99213.84;;;10.84;42.77
66385;BME280;53426;55.872;37.462;2023-04-24T01:40:56;99213.69;;;10.86;43.10
66385;BME280;53426;55.872;37.462;2023-04-24T01:43:24;99212.03;;;10.85;43.35
66385;BME280;53426;55.872;37.462;2023-04-24T01:45:50;99196.00;;;10.77;42.38
66385;BME280;53426;55.872;37.462;2023-04-24T01:48:16;99217.06;;;10.88;42.09
66385;BME280;53426;55.872;37.462;2023-04-24T01:50:42;99222.06;;;10.91;42.16
66385;BME280;53426;55.872;37.462;2023-04-24T01:53:11;99212.19;;;10.93;41.80
66385;BME280;53426;55.872;37.462;2023-04-24T01:55:37;99203.81;;;10.88;41.96
66385;BME280;53426;55.872;37.462;2023-04-24T01:58:04;99205.19;;;10.92;41.61
66385;BME280;53426;55.872;37.462;2023-04-24T02:00:30;99200.75;;;10.93;41.30
66385;BME280;53426;55.872;37.462;2023-04-24T02:02:56;99168.13;;;10.73;41.99
66385;BME280;53426;55.872;37.462;2023-04-24T02:05:22;99204.09;;;10.85;42.56
66385;BME280;53426;55.872;37.462;2023-04-24T02:07:48;99209.22;;;10.86;41.81
66385;BME280;53426;55.872;37.462;2023-04-24T02:10:14;99207.44;;;10.87;41.56
66385;BME280;53426;55.872;37.462;2023-04-24T02:12:45;99206.31;;;10.89;42.44
66385;BME280;53426;55.872;37.462;2023-04-24T02:15:11;99167.28;;;10.63;42.76
66385;BME280;53426;55.872;37.462;2023-04-24T02:17:38;99179.41;;;10.65;41.65
66385;BME280;53426;55.872;37.462;2023-04-24T02:20:06;99209.66;;;10.91;41.91
66385;BME280;53426;55.872;37.462;2023-04-24T02:22:32;99210.50;;;10.92;41.70
66385;BME280;53426;55.872;37.462;2023-04-24T02:25:01;99210.91;;;10.97;41.70
66385;BME280;53426;55.872;37.462;2023-04-24T02:27:32;99217.75;;;11.00;41.31
66385;BME280;53426;55.872;37.462;2023-04-24T02:29:59;99214.41;;;10.98;41.65
66385;BME280;53426;55.872;37.462;2023-04-24T02:32:26;99207.72;;;10.94;41.10
66385;BME280;53426;55.872;37.462;2023-04-24T02:34:53;99220.97;;;11.03;41.29
66385;BME280;53426;55.872;37.462;2023-04-24T02:37:19;99191.53;;;10.87;40.90
66385;BME280;53426;55.872;37.462;2023-04-24T02:39:45;99205.34;;;11.00;41.03
66385;BME280;53426;55.872;37.462;2023-04-24T02:42:11;99231.16;;;11.17;40.90
66385;BME280;53426;55.872;37.462;2023-04-24T02:44:38;99213.84;;;11.13;40.54
66385;BME280;53426;55.872;37.462;2023-04-24T02:47:04;99230.88;;;11.20;41.08
66385;BME280;53426;55.872;37.462;2023-04-24T02:49:30;99235.19;;;11.21;41.33
66385;BME280;53426;55.872;37.462;2023-04-24T02:51:56;99221.41;;;11.18;40.97
66385;BME280;53426;55.872;37.462;2023-04-24T02:54:22;99223.88;;;11.19;41.06
66385;BME280;53426;55.872;37.462;2023-04-24T02:56:47;99231.56;;;11.22;41.47
66385;BME280;53426;55.872;37.462;2023-04-24T02:59:13;99235.19;;;11.31;41.40
66385;BME280;53426;55.872;37.462;2023-04-24T03:01:39;99231.00;;;11.28;41.06
66385;BME280;53426;55.872;37.462;2023-04-24T03:04:05;99214.13;;;11.20;41.50
66385;BME280;53426;55.872;37.462;2023-04-24T03:06:31;99232.50;;;11.41;41.34
66385;BME280;53426;55.872;37.462;2023-04-24T03:08:59;99236.97;;;11.50;40.19
66385;BME280;53426;55.872;37.462;2023-04-24T03:11:25;99232.09;;;11.55;40.64
66385;BME280;53426;55.872;37.462;2023-04-24T03:13:59;99196.97;;;11.33;40.10
66385;BME280;53426;55.872;37.462;2023-04-24T03:16:28;99208.78;;;11.49;40.14
66385;BME280;53426;55.872;37.462;2023-04-24T03:18:57;99172.53;;;11.30;40.04
66385;BME280;53426;55.872;37.462;2023-04-24T03:21:25;99240.72;;;11.76;39.43
66385;BME280;53426;55.872;37.462;2023-04-24T03:23:52;99243.91;;;11.80;40.02
66385;BME280;53426;55.872;37.462;2023-04-24T03:26:18;99205.69;;;11.63;39.71
66385;BME280;53426;55.872;37.462;2023-04-24T03:28:58;99245.28;;;11.93;40.65
66385;BME280;53426;55.872;37.462;2023-04-24T03:31:24;99247.63;;;11.96;40.11
66385;BME280;53426;55.872;37.462;2023-04-24T03:33:50;99233.97;;;11.91;39.42
66385;BME280;53426;55.872;37.462;2023-04-24T03:36:17;99252.09;;;12.05;39.65
66385;BME280;53426;55.872;37.462;2023-04-24T03:38:45;99221.53;;;11.92;40.21
66385;BME280;53426;55.872;37.462;2023-04-24T03:41:29;99258.88;;;12.18;39.44
66385;BME280;53426;55.872;37.462;2023-04-24T03:44:16;99244.50;;;12.47;38.74
66385;BME280;53426;55.872;37.462;2023-04-24T03:46:42;99243.69;;;13.27;37.81
66385;BME280;53426;55.872;37.462;2023-04-24T03:49:08;99259.75;;;14.13;35.99
66385;BME280;53426;55.872;37.462;2023-04-24T03:51:37;99246.41;;;14.81;34.99
66385;BME280;53426;55.872;37.462;2023-04-24T03:54:23;99258.38;;;15.59;33.91
66385;BME280;53426;55.872;37.462;2023-04-24T03:56:51;99238.78;;;16.07;32.64
66385;BME280;53426;55.872;37.462;2023-04-24T03:59:17;99235.16;;;16.47;31.92
66385;BME280;53426;55.872;37.462;2023-04-24T04:01:48;99234.38;;;17.00;30.87
66385;BME280;53426;55.872;37.462;2023-04-24T04:04:16;99253.84;;;17.40;30.37
66385;BME280;53426;55.872;37.462;2023-04-24T04:06:43;99257.69;;;17.83;30.47
66385;BME280;53426;55.872;37.462;2023-04-24T04:09:10;99261.03;;;18.14;29.21
66385;BME280;53426;55.872;37.462;2023-04-24T04:11:36;99266.94;;;18.39;28.64
66385;BME280;53426;55.872;37.462;2023-04-24T04:14:02;99254.34;;;18.84;28.22
66385;BME280;53426;55.872;37.462;2023-04-24T04:16:29;99255.63;;;19.02;27.48
66385;BME280;53426;55.872;37.462;2023-04-24T04:19:01;99255.75;;;19.15;27.40
66385;BME280;53426;55.872;37.462;2023-04-24T04:21:28;99259.50;;;19.57;27.19
66385;BME280;53426;55.872;37.462;2023-04-24T04:24:04;99257.69;;;19.92;26.51
66385;BME280;53426;55.872;37.462;2023-04-24T04:26:36;99260.75;;;20.38;25.91
66385;BME280;53426;55.872;37.462;2023-04-24T04:29:08;99266.13;;;20.38;25.75
66385;BME280;53426;55.872;37.462;2023-04-24T04:31:38;99262.13;;;20.62;25.35
66385;BME280;53426;55.872;37.462;2023-04-24T04:34:09;99249.44;;;20.49;25.24
66385;BME280;53426;55.872;37.462;2023-04-24T04:36:35;99255.75;;;20.76;24.75
66385;BME280;53426;55.872;37.462;2023-04-24T04:39:13;99270.06;;;20.83;24.27
66385;BME280;53426;55.872;37.462;2023-04-24T04:41:51;99271.25;;;21.21;24.41
66385;BME280;53426;55.872;37.462;2023-04-24T04:44:19;99262.56;;;21.26;23.99
66385;BME280;53426;55.872;37.462;2023-04-24T04:46:45;99271.97;;;21.76;23.55
66385;BME280;53426;55.872;37.462;2023-04-24T04:49:23;99276.09;;;21.92;23.30
66385;BME280;53426;55.872;37.462;2023-04-24T04:51:50;99268.66;;;22.14;22.83
66385;BME280;53426;55.872;37.462;2023-04-24T04:54:17;99258.47;;;22.22;22.76
66385;BME280;53426;55.872;37.462;2023-04-24T04:56:43;99278.47;;;22.66;22.56
66385;BME280;53426;55.872;37.462;2023-04-24T04:59:09;99260.31;;;22.99;22.20
66385;BME280;53426;55.872;37.462;2023-04-24T05:01:37;99255.25;;;23.47;21.47
66385;BME280;53426;55.872;37.462;2023-04-24T05:04:05;99262.56;;;23.40;21.62
66385;BME280;53426;55.872;37.462;2023-04-24T05:06:31;99265.94;;;23.92;21.42
66385;BME280;53426;55.872;37.462;2023-04-24T05:08:58;99272.81;;;24.55;20.54
66385;BME280;53426;55.872;37.462;2023-04-24T05:11:44;99263.94;;;24.67;20.34
66385;BME280;53426;55.872;37.462;2023-04-24T05:14:10;99265.00;;;24.47;20.46
66385;BME280;53426;55.872;37.462;2023-04-24T05:16:39;99278.03;;;24.57;20.94
66385;BME280;53426;55.872;37.462;2023-04-24T05:19:08;99277.81;;;24.95;19.93
66385;BME280;53426;55.872;37.462;2023-04-24T05:21:38;99274.94;;;25.79;19.20
66385;BME280;53426;55.872;37.462;2023-04-24T05:24:06;99279.31;;;25.09;19.94
66385;BME280;53426;55.872;37.462;2023-04-24T05:26:48;99283.06;;;25.68;19.46
66385;BME280;53426;55.872;37.462;2023-04-24T05:29:18;99268.84;;;25.54;19.60
66385;BME280;53426;55.872;37.462;2023-04-24T05:31:44;99270.34;;;25.80;19.18
66385;BME280;53426;55.872;37.462;2023-04-24T05:34:11;99281.69;;;26.00;19.55
66385;BME280;53426;55.872;37.462;2023-04-24T05:36:41;99282.13;;;25.74;19.24
66385;BME280;53426;55.872;37.462;2023-04-24T05:39:09;99280.09;;;26.22;18.75
66385;BME280;53426;55.872;37.462;2023-04-24T05:41:35;99272.19;;;26.84;18.17
66385;BME280;53426;55.872;37.462;2023-04-24T05:44:01;99268.81;;;26.65;18.47
66385;BME280;53426;55.872;37.462;2023-04-24T05:46:27;99273.44;;;26.65;18.39
66385;BME280;53426;55.872;37.462;2023-04-24T05:48:54;99268.69;;;26.72;18.61
66385;BME280;53426;55.872;37.462;2023-04-24T05:51:20;99275.22;;;26.59;18.26
66385;BME280;53426;55.872;37.462;2023-04-24T05:53:46;99262.56;;;26.18;18.55
66385;BME280;53426;55.872;37.462;2023-04-24T05:56:12;99273.31;;;26.72;18.39
66385;BME280;53426;55.872;37.462;2023-04-24T05:58:38;99269.34;;;27.02;17.81
66385;BME280;53426;55.872;37.462;2023-04-24T06:01:05;99269.66;;;27.34;17.72
66385;BME280;53426;55.872;37.462;2023-04-24T06:03:31;99263.94;;;27.93;17.15
66385;BME280;53426;55.872;37.462;2023-04-24T06:05:58;99249.63;;;28.74;16.50
66385;BME280;53426;55.872;37.462;2023-04-24T06:08:24;99267.63;;;29.45;16.05
66385;BME280;53426;55.872;37.462;2023-04-24T06:10:51;99270.41;;;29.50;15.52
66385;BME280;53426;55.872;37.462;2023-04-24T06:13:24;99270.16;;;29.30;15.75
66385;BME280;53426;55.872;37.462;2023-04-24T06:16:10;99265.84;;;30.25;14.93
66385;BME280;53426;55.872;37.462;2023-04-24T06:18:39;99268.09;;;30.80;14.42
66385;BME280;53426;55.872;37.462;2023-04-24T06:21:05;99278.66;;;31.19;14.12
66385;BME280;53426;55.872;37.462;2023-04-24T06:23:32;99276.19;;;31.22;13.86
66385;BME280;53426;55.872;37.462;2023-04-24T06:25:59;99277.41;;;30.89;14.00
66385;BME280;53426;55.872;37.462;2023-04-24T06:28:25;99267.56;;;30.83;14.34
66385;BME280;53426;55.872;37.462;2023-04-24T06:30:52;99266.19;;;31.58;13.83
66385;BME280;53426;55.872;37.462;2023-04-24T06:33:20;99255.22;;;32.14;13.35
66385;BME280;53426;55.872;37.462;2023-04-24T06:35:46;99274.88;;;32.66;13.02
66385;BME280;53426;55.872;37.462;2023-04-24T06:38:12;99277.66;;;32.31;13.30
66385;BME280;53426;55.872;37.462;2023-04-24T06:40:38;99260.13;;;30.68;13.69
66385;BME280;53426;55.872;37.462;2023-04-24T06:43:04;99264.19;;;31.28;14.08
66385;BME280;53426;55.872;37.462;2023-04-24T06:45:31;99271.97;;;30.94;14.48
66385;BME280;53426;55.872;37.462;2023-04-24T06:48:06;99260.34;;;31.19;14.12
66385;BME280;53426;55.872;37.462;2023-04-24T06:50:35;99265.06;;;32.35;13.40
66385;BME280;53426;55.872;37.462;2023-04-24T06:53:03;99271.38;;;32.10;13.78
66385;BME280;53426;55.872;37.462;2023-04-24T06:55:29;99259.09;;;32.13;13.55
66385;BME280;53426;55.872;37.462;2023-04-24T06:57:55;99273.84;;;31.91;13.65
66385;BME280;53426;55.872;37.462;2023-04-24T07:00:21;99280.03;;;31.21;14.20
66385;BME280;53426;55.872;37.462;2023-04-24T07:02:49;99249.25;;;30.89;14.33
66385;BME280;53426;55.872;37.462;2023-04-24T07:05:15;99269.88;;;30.17;14.54
66385;BME280;53426;55.872;37.462;2023-04-24T07:07:41;99262.69;;;30.43;14.63
66385;BME280;53426;55.872;37.462;2023-04-24T07:10:08;99282.88;;;30.89;14.40
66385;BME280;53426;55.872;37.462;2023-04-24T07:12:34;99277.44;;;30.42;14.59
66385;BME280;53426;55.872;37.462;2023-04-24T07:15:01;99279.06;;;31.73;13.88
66385;BME280;53426;55.872;37.462;2023-04-24T07:17:30;99264.53;;;32.33;13.22
66385;BME280;53426;55.872;37.462;2023-04-24T07:19:56;99277.06;;;32.69;12.73
66385;BME280;53426;55.872;37.462;2023-04-24T07:22:22;99273.16;;;33.84;12.98
66385;BME280;53426;55.872;37.462;2023-04-24T07:24:49;99279.63;;;34.56;11.72
66385;BME280;53426;55.872;37.462;2023-04-24T07:27:23;99271.44;;;34.98;11.34
66385;BME280;53426;55.872;37.462;2023-04-24T07:29:50;99276.00;;;33.74;11.40
66385;BME280;53426;55.872;37.462;2023-04-24T07:32:17;99278.81;;;33.97;11.47
66385;BME280;53426;55.872;37.462;2023-04-24T07:34:43;99272.50;;;33.09;11.98
66385;BME280;53426;55.872;37.462;2023-04-24T07:37:10;99280.97;;;33.17;12.33
66385;BME280;53426;55.872;37.462;2023-04-24T07:39:35;99273.06;;;33.60;11.92
66385;BME280;53426;55.872;37.462;2023-04-24T07:42:01;99272.31;;;34.75;11.54
66385;BME280;53426;55.872;37.462;2023-04-24T07:44:27;99272.13;;;33.75;12.26
66385;BME280;53426;55.872;37.462;2023-04-24T07:46:55;99270.31;;;31.91;13.04
66385;BME280;53426;55.872;37.462;2023-04-24T07:49:21;99270.78;;;30.65;13.83
66385;BME280;53426;55.872;37.462;2023-04-24T07:51:47;99270.59;;;30.03;13.74
66385;BME280;53426;55.872;37.462;2023-04-24T07:54:13;99268.66;;;29.39;14.37
66385;BME280;53426;55.872;37.462;2023-04-24T07:56:39;99260.91;;;28.44;14.68
66385;BME280;53426;55.872;37.462;2023-04-24T07:59:07;99262.56;;;28.45;14.58
66385;BME280;53426;55.872;37.462;2023-04-24T08:01:33;99266.72;;;28.31;15.13
66385;BME280;53426;55.872;37.462;2023-04-24T08:03:59;99265.22;;;27.57;15.54
66385;BME280;53426;55.872;37.462;2023-04-24T08:06:25;99236.72;;;27.02;15.44
66385;BME280;53426;55.872;37.462;2023-04-24T08:08:59;99250.53;;;25.68;16.60
66385;BME280;53426;55.872;37.462;2023-04-24T08:11:26;99254.19;;;25.43;17.01
66385;BME280;53426;55.872;37.462;2023-04-24T08:13:52;99248.88;;;25.67;16.95
66385;BME280;53426;55.872;37.462;2023-04-24T08:16:18;99253.81;;;25.70;17.11
66385;BME280;53426;55.872;37.462;2023-04-24T08:18:44;99247.44;;;25.64;16.96
66385;BME280;53426;55.872;37.462;2023-04-24T08:21:10;99251.72;;;26.18;16.94
66385;BME280;53426;55.872;37.462;2023-04-24T08:23:36;99259.41;;;26.56;16.83
66385;BME280;53426;55.872;37.462;2023-04-24T08:26:03;99249.22;;;27.77;15.42
66385;BME280;53426;55.872;37.462;2023-04-24T08:28:36;99243.22;;;27.75;15.54
66385;BME280;53426;55.872;37.462;2023-04-24T08:31:02;99229.13;;;26.76;15.93
66385;BME280;53426;55.872;37.462;2023-04-24T08:33:27;99253.78;;;26.35;15.88
66385;BME280;53426;55.872;37.462;2023-04-24T08:36:04;99251.19;;;26.91;15.89
66385;BME280;53426;55.872;37.462;2023-04-24T08:38:30;99231.34;;;27.19;15.44
66385;BME280;53426;55.872;37.462;2023-04-24T08:41:01;99234.25;;;28.46;14.18
66385;BME280;53426;55.872;37.462;2023-04-24T08:43:31;99238.09;;;30.01;13.55
66385;BME280;53426;55.872;37.462;2023-04-24T08:45:59;99238.13;;;31.10;12.43
66385;BME280;53426;55.872;37.462;2023-04-24T08:48:26;99234.22;;;30.39;13.28
66385;BME280;53426;55.872;37.462;2023-04-24T08:50:53;99222.53;;;30.02;13.10
66385;BME280;53426;55.872;37.462;2023-04-24T08:53:18;99229.19;;;30.63;12.99
66385;BME280;53426;55.872;37.462;2023-04-24T08:55:47;99236.03;;;29.49;13.73
66385;BME280;53426;55.872;37.462;2023-04-24T08:58:15;99231.09;;;27.82;14.61
66385;BME280;53426;55.872;37.462;2023-04-24T09:00:42;99230.44;;;28.09;14.73
66385;BME280;53426;55.872;37.462;2023-04-24T09:03:15;99211.56;;;28.19;14.63
66385;BME280;53426;55.872;37.462;2023-04-24T09:05:46;99205.06;;;27.86;15.23
66385;BME280;53426;55.872;37.462;2023-04-24T09:08:13;99221.84;;;27.67;15.34
66385;BME280;53426;55.872;37.462;2023-04-24T09:10:41;99217.94;;;29.17;14.19
66385;BME280;53426;55.872;37.462;2023-04-24T09:13:07;99210.38;;;30.71;12.92
66385;BME280;53426;55.872;37.462;2023-04-24T09:15:38;99207.03;;;31.87;12.28
66385;BME280;53426;55.872;37.462;2023-04-24T09:18:07;99220.41;;;32.39;12.02
66385;BME280;53426;55.872;37.462;2023-04-24T09:20:33;99214.69;;;32.16;12.06
66385;BME280;53426;55.872;37.462;2023-04-24T09:23:01;99212.91;;;32.60;11.27
66385;BME280;53426;55.872;37.462;2023-04-24T09:25:36;99207.84;;;31.98;11.90
66385;BME280;53426;55.872;37.462;2023-04-24T09:28:03;99206.72;;;31.28;12.04
66385;BME280;53426;55.872;37.462;2023-04-24T09:30:30;99205.88;;;31.17;12.40
66385;BME280;53426;55.872;37.462;2023-04-24T09:33:36;99196.59;;;32.15;11.96
66385;BME280;53426;55.872;37.462;2023-04-24T09:36:51;99191.44;;;31.47;12.87
66385;BME280;53426;55.872;37.462;2023-04-24T09:39:20;99121.72;;;29.53;13.47
66385;BME280;53426;55.872;37.462;2023-04-24T09:41:54;99082.94;;;29.88;13.06
66385;BME280;53426;55.872;37.462;2023-04-24T09:44:27;99181.78;;;29.90;13.75
66385;BME280;53426;55.872;37.462;2023-04-24T09:46:58;99137.19;;;30.16;12.93
66385;BME280;53426;55.872;37.462;2023-04-24T09:49:30;99116.44;;;31.28;12.79
66385;BME280;53426;55.872;37.462;2023-04-24T09:52:06;99105.94;;;30.54;13.54
66385;BME280;53426;55.872;37.462;2023-04-24T09:54:36;99162.59;;;30.94;12.84
66385;BME280;53426;55.872;37.462;2023-04-24T09:57:07;99130.31;;;29.67;13.31
66385;BME280;53426;55.872;37.462;2023-04-24T09:59:42;99180.84;;;29.42;13.88
66385;BME280;53426;55.872;37.462;2023-04-24T10:02:28;99180.47;;;28.58;14.17
66385;BME280;53426;55.872;37.462;2023-04-24T10:04:59;99168.16;;;27.29;15.30
66385;BME280;53426;55.872;37.462;2023-04-24T10:07:27;99174.50;;;27.34;15.61
66385;BME280;53426;55.872;37.462;2023-04-24T10:10:01;99098.56;;;28.92;14.97
66385;BME280;53426;55.872;37.462;2023-04-24T10:12:31;99153.84;;;30.87;13.63
66385;BME280;53426;55.872;37.462;2023-04-24T10:15:01;99172.94;;;32.49;12.38
66385;BME280;53426;55.872;37.462;2023-04-24T10:17:31;99108.19;;;31.89;12.14
66385;BME280;53426;55.872;37.462;2023-04-24T10:20:00;99116.16;;;31.85;12.49
66385;BME280;53426;55.872;37.462;2023-04-24T10:22:30;99179.31;;;32.94;11.64
66385;BME280;53426;55.872;37.462;2023-04-24T10:24:59;99174.66;;;32.94;11.10
66385;BME280;53426;55.872;37.462;2023-04-24T10:27:26;99177.31;;;30.73;12.23
66385;BME280;53426;55.872;37.462;2023-04-24T10:29:56;99153.06;;;29.45;13.74
66385;BME280;53426;55.872;37.462;2023-04-24T10:32:22;99158.13;;;29.69;13.12
66385;BME280;53426;55.872;37.462;2023-04-24T10:34:49;99137.94;;;29.70;12.91
66385;BME280;53426;55.872;37.462;2023-04-24T10:37:15;99155.00;;;29.87;12.62
66385;BME280;53426;55.872;37.462;2023-04-24T10:39:41;99150.16;;;29.62;13.21
66385;BME280;53426;55.872;37.462;2023-04-24T10:42:17;99146.16;;;30.79;12.98
66385;BME280;53426;55.872;37.462;2023-04-24T10:44:43;99146.09;;;30.49;12.51
66385;BME280;53426;55.872;37.462;2023-04-24T10:47:15;99141.63;;;28.90;13.70
66385;BME280;53426;55.872;37.462;2023-04-24T10:49:40;99146.81;;;27.04;14.79
66385;BME280;53426;55.872;37.462;2023-04-24T10:52:08;99134.81;;;25.97;15.40
66385;BME280;53426;55.872;37.462;2023-04-24T10:54:36;99115.09;;;26.24;15.39
66385;BME280;53426;55.872;37.462;2023-04-24T11:02:40;99134.16;;;27.76;14.54
66385;BME280;53426;55.872;37.462;2023-04-24T11:05:09;99134.81;;;27.67;14.64
66385;BME280;53426;55.872;37.462;2023-04-24T11:08:14;99125.41;;;27.24;15.04
66385;BME280;53426;55.872;37.462;2023-04-24T11:20:33;99111.03;;;23.85;17.17
66385;BME280;53426;55.872;37.462;2023-04-24T11:23:05;99054.03;;;23.25;17.69
66385;BME280;53426;55.872;37.462;2023-04-24T11:26:19;99124.47;;;23.55;17.64
66385;BME280;53426;55.872;37.462;2023-04-24T11:28:47;99115.19;;;22.88;18.37
66385;BME280;53426;55.872;37.462;2023-04-24T11:31:36;99127.03;;;22.87;18.66
66385;BME280;53426;55.872;37.462;2023-04-24T11:34:09;99093.66;;;22.37;18.66
66385;BME280;53426;55.872;37.462;2023-04-24T11:36:36;99047.91;;;22.17;18.96
66385;BME280;53426;55.872;37.462;2023-04-24T11:39:02;99112.53;;;22.81;18.94
66385;BME280;53426;55.872;37.462;2023-04-24T11:41:29;99083.06;;;22.80;18.52
66385;BME280;53426;55.872;37.462;2023-04-24T11:43:55;99099.31;;;22.73;18.60
66385;BME280;53426;55.872;37.462;2023-04-24T11:46:22;99089.25;;;22.49;18.84
66385;BME280;53426;55.872;37.462;2023-04-24T11:48:49;99078.06;;;22.45;19.08
66385;BME280;53426;55.872;37.462;2023-04-24T11:51:32;99071.56;;;22.53;18.97
66385;BME280;53426;55.872;37.462;2023-04-24T11:53:58;99080.47;;;22.22;19.23
66385;BME280;53426;55.872;37.462;2023-04-24T11:56:24;99085.03;;;22.15;19.38
66385;BME280;53426;55.872;37.462;2023-04-24T11:58:55;99086.78;;;21.83;19.36
66385;BME280;53426;55.872;37.462;2023-04-24T12:01:23;99084.75;;;21.72;19.21
66385;BME280;53426;55.872;37.462;2023-04-24T12:03:50;99079.81;;;21.49;19.57
66385;BME280;53426;55.872;37.462;2023-04-24T12:06:25;99051.06;;;21.43;19.72
66385;BME280;53426;55.872;37.462;2023-04-24T12:08:52;99084.41;;;21.49;19.80
66385;BME280;53426;55.872;37.462;2023-04-24T12:11:20;99085.44;;;21.41;19.87
66385;BME280;53426;55.872;37.462;2023-04-24T12:13:46;99081.31;;;21.25;20.23
66385;BME280;53426;55.872;37.462;2023-04-24T12:16:12;99072.59;;;21.23;20.31
66385;BME280;53426;55.872;37.462;2023-04-24T12:18:42;98988.75;;;20.61;20.28
66385;BME280;53426;55.872;37.462;2023-04-24T12:21:19;99070.16;;;21.15;20.11
66385;BME280;53426;55.872;37.462;2023-04-24T12:23:46;99071.56;;;21.38;19.99
66385;BME280;53426;55.872;37.462;2023-04-24T12:26:16;99044.41;;;21.06;19.67
66385;BME280;53426;55.872;37.462;2023-04-24T12:28:46;99072.00;;;21.21;19.56
66385;BME280;53426;55.872;37.462;2023-04-24T12:31:13;99076.38;;;21.16;19.53
66385;BME280;53426;55.872;37.462;2023-04-24T12:33:39;99051.31;;;21.22;19.56
66385;BME280;53426;55.872;37.462;2023-04-24T12:36:05;99076.97;;;21.31;19.52
66385;BME280;53426;55.872;37.462;2023-04-24T12:38:32;99057.88;;;21.13;19.63
66385;BME280;53426;55.872;37.462;2023-04-24T12:41:07;99046.72;;;21.09;19.72
66385;BME280;53426;55.872;37.462;2023-04-24T12:43:34;99070.56;;;21.25;19.98
66385;BME280;53426;55.872;37.462;2023-04-24T12:46:00;99059.53;;;21.34;20.05
66385;BME280;53426;55.872;37.462;2023-04-24T12:48:27;99064.53;;;21.37;20.39
66385;BME280;53426;55.872;37.462;2023-04-24T12:50:53;99047.94;;;21.46;20.62
66385;BME280;53426;55.872;37.462;2023-04-24T12:53:19;99062.22;;;21.60;20.29
66385;BME280;53426;55.872;37.462;2023-04-24T12:55:45;99052.88;;;21.56;20.24
66385;BME280;53426;55.872;37.462;2023-04-24T12:58:12;99030.50;;;21.55;20.04
66385;BME280;53426;55.872;37.462;2023-04-24T13:00:38;99022.00;;;21.52;20.07
66385;BME280;53426;55.872;37.462;2023-04-24T13:03:04;99031.75;;;21.53;20.18
66385;BME280;53426;55.872;37.462;2023-04-24T13:05:33;99028.88;;;21.48;20.26
66385;BME280;53426;55.872;37.462;2023-04-24T13:07:59;99013.38;;;21.10;20.45
66385;BME280;53426;55.872;37.462;2023-04-24T13:10:25;99044.66;;;21.24;20.53
66385;BME280;53426;55.872;37.462;2023-04-24T13:12:51;99000.34;;;20.94;20.56